createdAt,value
2022-11-22T00:01:38.708Z,2.74
2022-11-22T00:04:08.297Z,2.77
2022-11-22T00:06:38.707Z,2.80
2022-11-22T00:09:07.849Z,2.83
2022-11-22T00:11:36.991Z,2.90
2022-11-22T00:14:06.171Z,2.92
2022-11-22T00:16:35.630Z,2.95
2022-11-22T00:19:05.369Z,2.94
2022-11-22T00:21:34.421Z,2.97
2022-11-22T00:24:05.312Z,2.97
2022-11-22T00:26:34.568Z,3.01
2022-11-22T00:29:03.657Z,2.99
2022-11-22T00:31:33.164Z,3.00
2022-11-22T00:34:02.191Z,3.00
2022-11-22T00:36:31.311Z,3.05
2022-11-22T00:39:00.408Z,3.04
2022-11-22T00:41:30.824Z,3.07
2022-11-22T00:43:59.967Z,3.04
2022-11-22T00:46:29.023Z,3.05
2022-11-22T00:48:58.111Z,3.08
2022-11-22T00:51:27.229Z,3.08
2022-11-22T00:53:56.375Z,3.06
2022-11-22T00:56:25.427Z,3.04
2022-11-22T00:58:55.979Z,3.02
2022-11-22T01:01:25.215Z,2.99
2022-11-22T01:03:54.414Z,3.02
2022-11-22T01:06:23.670Z,3.01
2022-11-22T01:08:52.775Z,2.97
2022-11-22T01:11:22.852Z,3.02
2022-11-22T01:13:51.954Z,2.98
2022-11-22T01:16:22.488Z,2.98
2022-11-22T01:18:51.551Z,2.94
2022-11-22T01:21:20.671Z,2.89
2022-11-22T01:23:51.812Z,2.88
2022-11-22T01:26:20.894Z,2.93
2022-11-22T01:28:49.980Z,3.08
2022-11-22T01:31:19.048Z,2.89
2022-11-22T01:33:49.468Z,2.75
2022-11-22T01:36:18.680Z,2.69
2022-11-22T01:38:47.783Z,2.72
2022-11-22T01:41:17.960Z,2.72
2022-11-22T01:43:47.054Z,2.73
2022-11-22T01:46:31.330Z,2.77
2022-11-22T01:49:06.384Z,2.69
2022-11-22T01:51:39.606Z,2.75
2022-11-22T01:54:13.743Z,2.76
2022-11-22T01:56:46.877Z,2.78
2022-11-22T01:59:21.110Z,2.77
2022-11-22T02:01:50.778Z,2.70
2022-11-22T02:04:23.434Z,2.72
2022-11-22T02:06:58.063Z,2.78
2022-11-22T02:09:28.352Z,2.81
2022-11-22T02:12:01.660Z,2.74
2022-11-22T02:14:32.674Z,2.78
2022-11-22T02:17:01.693Z,2.85
2022-11-22T02:19:43.260Z,2.97
2022-11-22T02:22:26.542Z,2.76
2022-11-22T02:25:03.635Z,2.75
2022-11-22T02:27:34.127Z,2.74
2022-11-22T02:30:03.279Z,2.74
2022-11-22T02:32:36.008Z,2.62
2022-11-22T02:35:21.805Z,2.65
2022-11-22T02:37:59.289Z,2.68
2022-11-22T02:40:31.694Z,2.66
2022-11-22T02:43:06.947Z,2.70
2022-11-22T02:45:36.000Z,2.56
2022-11-22T02:48:11.194Z,2.50
2022-11-22T02:50:40.509Z,2.60
2022-11-22T02:53:11.976Z,2.54
2022-11-22T02:55:41.785Z,2.50
2022-11-22T02:58:12.324Z,2.40
2022-11-22T03:00:41.683Z,2.46
2022-11-22T03:03:10.889Z,2.57
2022-11-22T03:05:40.026Z,2.52
2022-11-22T03:08:09.116Z,2.45
2022-11-22T03:10:38.387Z,2.45
2022-11-22T03:13:07.480Z,2.39
2022-11-22T03:15:38.130Z,2.44
2022-11-22T03:18:07.424Z,2.49
2022-11-22T03:20:36.432Z,2.68
2022-11-22T03:23:05.624Z,2.56
2022-11-22T03:25:37.632Z,2.50
2022-11-22T03:28:07.800Z,2.50
2022-11-22T03:30:41.665Z,2.60
2022-11-22T03:33:11.269Z,2.68
2022-11-22T03:35:40.543Z,2.67
2022-11-22T03:38:09.640Z,2.69
2022-11-22T03:40:38.752Z,2.72
2022-11-22T03:43:07.797Z,2.73
2022-11-22T03:45:38.336Z,2.77
2022-11-22T03:48:07.524Z,2.78
2022-11-22T03:50:36.665Z,2.88
2022-11-22T03:53:05.972Z,2.70
2022-11-22T03:55:35.088Z,2.64
2022-11-22T03:58:04.428Z,2.67
2022-11-22T04:00:34.456Z,2.59
2022-11-22T04:03:04.975Z,2.57
2022-11-22T04:05:34.088Z,2.58
2022-11-22T04:08:03.415Z,2.69
2022-11-22T04:10:32.562Z,2.78
2022-11-22T04:13:01.576Z,2.64
2022-11-22T04:15:29.655Z,2.63
2022-11-22T04:17:58.688Z,2.70
2022-11-22T04:20:49.066Z,2.68
2022-11-22T04:23:20.163Z,2.71
2022-11-22T04:25:50.203Z,2.74
2022-11-22T04:28:24.539Z,2.96
2022-11-22T04:31:21.663Z,2.83
2022-11-22T04:33:50.768Z,2.69
2022-11-22T04:36:21.237Z,2.67
2022-11-22T04:38:50.319Z,2.66
2022-11-22T04:41:21.351Z,2.64
2022-11-22T04:44:07.906Z,2.67
2022-11-22T04:46:38.309Z,2.70
2022-11-22T04:49:07.583Z,2.76
2022-11-22T04:51:55.839Z,2.82
2022-11-22T04:54:25.120Z,2.77
2022-11-22T04:56:54.276Z,2.76
2022-11-22T04:59:23.317Z,2.70
2022-11-22T05:01:54.218Z,2.72
2022-11-22T05:04:23.280Z,2.70
2022-11-22T05:06:53.885Z,2.67
2022-11-22T05:09:22.937Z,2.67
2022-11-22T05:11:52.190Z,2.71
2022-11-22T05:14:21.261Z,2.72
2022-11-22T05:16:50.396Z,2.78
2022-11-22T05:19:19.511Z,2.79
2022-11-22T05:21:48.638Z,2.67
2022-11-22T05:24:18.112Z,2.69
2022-11-22T05:26:47.308Z,2.68
2022-11-22T05:29:17.330Z,2.69
2022-11-22T05:31:51.164Z,2.77
2022-11-22T05:34:20.630Z,2.82
2022-11-22T05:36:49.747Z,2.84
2022-11-22T05:39:20.577Z,2.85
2022-11-22T05:41:56.932Z,2.87
2022-11-22T05:44:26.028Z,2.84
2022-11-22T05:46:55.141Z,2.82
2022-11-22T05:49:24.478Z,2.83
2022-11-22T05:51:53.610Z,2.82
2022-11-22T05:54:24.158Z,2.83
2022-11-22T05:56:53.252Z,2.84
2022-11-22T05:59:22.620Z,2.81
2022-11-22T06:01:51.932Z,2.78
2022-11-22T06:04:21.398Z,2.79
2022-11-22T06:06:50.449Z,2.81
2022-11-22T06:09:19.583Z,2.78
2022-11-22T06:11:50.062Z,2.80
2022-11-22T06:14:19.900Z,2.87
2022-11-22T06:16:49.059Z,2.83
2022-11-22T06:19:20.019Z,2.78
2022-11-22T06:21:49.288Z,2.81
2022-11-22T06:24:19.189Z,2.86
2022-11-22T06:26:49.645Z,2.87
2022-11-22T06:29:19.933Z,2.90
2022-11-22T06:31:49.024Z,2.93
2022-11-22T06:34:18.234Z,2.95
2022-11-22T06:36:47.641Z,2.99
2022-11-22T06:39:17.070Z,3.06
2022-11-22T06:41:46.125Z,3.17
2022-11-22T06:44:17.011Z,3.13
2022-11-22T06:46:46.241Z,3.15
2022-11-22T06:49:15.429Z,3.22
2022-11-22T06:51:44.582Z,3.23
2022-11-22T06:54:14.133Z,3.31
2022-11-22T06:56:43.404Z,3.34
2022-11-22T06:59:12.624Z,3.35
2022-11-22T07:01:43.626Z,3.39
2022-11-22T07:04:12.780Z,3.45
2022-11-22T07:06:44.229Z,3.43
2022-11-22T07:09:13.810Z,3.47
2022-11-22T07:11:42.938Z,3.52
2022-11-22T07:14:12.096Z,3.54
2022-11-22T07:16:43.710Z,3.60
2022-11-22T07:19:12.846Z,3.62
2022-11-22T07:21:41.951Z,3.65
2022-11-22T07:24:11.201Z,3.68
2022-11-22T07:26:40.275Z,3.70
2022-11-22T07:29:09.442Z,3.76
2022-11-22T07:31:38.558Z,3.82
2022-11-22T07:34:08.967Z,3.83
2022-11-22T07:36:38.050Z,3.76
2022-11-22T07:39:07.097Z,3.81
2022-11-22T07:41:36.303Z,3.84
2022-11-22T07:44:05.799Z,3.86
2022-11-22T07:46:34.862Z,3.83
2022-11-22T07:49:04.363Z,3.85
2022-11-22T07:51:35.040Z,3.91
2022-11-22T07:54:04.114Z,3.97
2022-11-22T07:56:33.290Z,4.00
2022-11-22T07:59:04.263Z,4.08
2022-11-22T08:01:33.397Z,4.15
2022-11-22T08:04:02.904Z,4.23
2022-11-22T08:06:32.039Z,4.28
2022-11-22T08:09:02.596Z,4.36
2022-11-22T08:11:31.711Z,4.47
2022-11-22T08:14:00.841Z,4.58
2022-11-22T08:16:30.031Z,4.62
2022-11-22T08:18:59.377Z,4.72
2022-11-22T08:21:28.549Z,4.82
2022-11-22T08:24:00.050Z,4.87
2022-11-22T08:26:31.147Z,4.95
2022-11-22T08:29:00.445Z,5.03
2022-11-22T08:31:32.581Z,5.10
2022-11-22T08:34:01.847Z,5.08
2022-11-22T08:36:31.255Z,4.98
2022-11-22T08:39:00.655Z,4.86
2022-11-22T08:41:31.167Z,4.91
2022-11-22T08:44:00.263Z,4.97
2022-11-22T08:46:29.387Z,5.05
2022-11-22T08:48:58.478Z,5.19
2022-11-22T08:51:27.522Z,5.27
2022-11-22T08:53:56.557Z,5.27
2022-11-22T08:56:25.666Z,5.37
2022-11-22T08:58:56.331Z,5.36
2022-11-22T09:01:25.636Z,5.46
2022-11-22T09:03:54.807Z,5.47
2022-11-22T09:09:36.495Z,5.49
2022-11-22T09:12:02.097Z,5.47
2022-11-22T09:14:32.572Z,5.43
2022-11-22T09:17:01.860Z,5.42
2022-11-22T09:19:31.219Z,5.43
2022-11-22T09:22:00.512Z,5.50
2022-11-22T09:24:29.572Z,5.55
2022-11-22T09:26:58.637Z,5.58
2022-11-22T09:29:27.893Z,5.41
2022-11-22T09:31:58.730Z,5.44
2022-11-22T09:34:27.794Z,5.39
2022-11-22T09:36:56.837Z,5.63
2022-11-22T09:39:30.087Z,5.35
2022-11-22T09:42:35.447Z,5.37
2022-11-22T09:45:53.628Z,5.74
2022-11-22T09:48:44.273Z,6.03
2022-11-22T09:51:18.477Z,5.56
2022-11-22T09:53:54.197Z,5.39
2022-11-22T09:56:27.149Z,5.41
2022-11-22T09:58:59.634Z,5.34
2022-11-22T10:01:32.937Z,5.39
2022-11-22T10:04:09.580Z,5.37
2022-11-22T10:06:42.257Z,5.35
2022-11-22T10:09:27.797Z,5.37
2022-11-22T10:12:02.653Z,5.41
2022-11-22T10:14:45.473Z,5.45
2022-11-22T10:17:29.627Z,5.21
2022-11-22T10:20:08.171Z,5.30
2022-11-22T10:22:37.428Z,5.40
2022-11-22T10:25:18.618Z,5.35
2022-11-22T10:27:57.557Z,5.24
2022-11-22T10:30:37.145Z,5.23
2022-11-22T10:33:15.346Z,5.44
2022-11-22T10:36:02.659Z,5.63
2022-11-22T10:39:03.969Z,5.55
2022-11-22T10:41:47.981Z,5.64
2022-11-22T10:44:31.234Z,5.68
2022-11-22T10:47:12.650Z,5.80
2022-11-22T10:49:56.761Z,5.53
2022-11-22T10:52:37.083Z,5.58
2022-11-22T10:55:24.585Z,5.49
2022-11-22T10:58:04.871Z,5.45
2022-11-22T11:00:39.232Z,5.44
2022-11-22T11:03:25.607Z,5.48
2022-11-22T11:06:21.576Z,5.47
2022-11-22T11:09:48.047Z,5.26
2022-11-22T11:11:48.201Z,5.38
2022-11-22T11:14:31.154Z,5.47
2022-11-22T11:17:02.280Z,5.57
2022-11-22T11:19:38.438Z,5.68
2022-11-22T11:22:37.396Z,5.86
2022-11-22T11:25:31.843Z,6.02
2022-11-22T11:28:06.586Z,6.05
2022-11-22T11:30:41.937Z,6.11
2022-11-22T11:33:24.969Z,6.13
2022-11-22T11:35:57.425Z,6.20
2022-11-22T11:38:35.425Z,6.37
2022-11-22T11:41:25.837Z,6.51
2022-11-22T11:43:57.070Z,6.50
2022-11-22T11:46:28.111Z,6.43
2022-11-22T11:49:09.875Z,6.32
2022-11-22T11:51:42.042Z,6.17
2022-11-22T11:54:15.673Z,6.01
2022-11-22T11:56:49.408Z,5.88
2022-11-22T11:59:20.792Z,5.77
2022-11-22T12:01:59.615Z,5.60
2022-11-22T12:04:32.263Z,5.62
2022-11-22T12:07:05.614Z,5.62
2022-11-22T12:09:38.528Z,5.71
2022-11-22T12:12:19.691Z,5.73
2022-11-22T12:15:10.873Z,5.73
2022-11-22T12:17:51.453Z,5.56
2022-11-22T12:20:27.115Z,5.40
2022-11-22T12:23:11.263Z,5.35
2022-11-22T12:25:41.233Z,5.38
2022-11-22T12:28:21.644Z,5.39
2022-11-22T12:30:57.921Z,5.37
2022-11-22T12:33:32.729Z,5.46
2022-11-22T12:36:04.312Z,5.56
2022-11-22T12:38:39.076Z,5.63
2022-11-22T12:41:13.444Z,5.70
2022-11-22T12:43:53.916Z,5.70
2022-11-22T12:46:27.047Z,5.67
2022-11-22T12:48:59.671Z,5.57
2022-11-22T12:51:38.356Z,5.49
2022-11-22T12:54:15.485Z,5.44
2022-11-22T12:56:50.301Z,5.48
2022-11-22T12:59:33.154Z,5.46
2022-11-22T13:02:13.971Z,5.40
2022-11-22T13:04:53.627Z,5.53
2022-11-22T13:07:34.838Z,5.56
2022-11-22T13:10:14.440Z,5.57
2022-11-22T13:12:46.204Z,5.55
2022-11-22T13:15:29.675Z,5.61
2022-11-22T13:17:59.355Z,5.66
2022-11-22T13:20:41.135Z,5.63
2022-11-22T13:23:33.364Z,5.67
2022-11-22T13:26:14.920Z,5.52
2022-11-22T13:28:46.058Z,5.44
2022-11-22T13:31:20.758Z,5.33
2022-11-22T13:33:59.957Z,5.27
2022-11-22T13:36:41.460Z,5.32
2022-11-22T13:39:20.066Z,5.33
2022-11-22T13:42:04.380Z,5.45
2022-11-22T13:44:51.329Z,5.35
2022-11-22T13:47:43.790Z,5.40
2022-11-22T13:51:01.597Z,5.41
2022-11-22T13:53:33.672Z,5.39
2022-11-22T13:56:50.526Z,5.36
2022-11-22T13:59:19.895Z,5.36
2022-11-22T14:02:05.179Z,5.38
2022-11-22T14:04:43.841Z,5.45
2022-11-22T14:07:33.637Z,5.49
2022-11-22T14:10:05.059Z,5.43
2022-11-22T14:12:55.701Z,5.42
2022-11-22T14:15:49.502Z,5.45
2022-11-22T14:18:52.397Z,5.46
2022-11-22T14:21:47.617Z,5.45
2022-11-22T14:24:41.271Z,5.46
2022-11-22T14:27:27.022Z,5.44
2022-11-22T14:30:19.837Z,5.44
2022-11-22T14:33:04.121Z,5.38
2022-11-22T14:35:36.619Z,5.34
2022-11-22T14:38:33.190Z,5.32
2022-11-22T14:41:45.177Z,5.35
2022-11-22T14:44:20.351Z,5.32
2022-11-22T14:46:56.918Z,5.27
2022-11-22T14:49:44.335Z,5.23
2022-11-22T14:52:22.916Z,5.23
2022-11-22T14:54:58.263Z,5.21
2022-11-22T14:57:29.959Z,5.21
2022-11-22T15:00:19.717Z,5.18
2022-11-22T15:03:40.253Z,5.10
2022-11-22T15:09:19.189Z,5.05
2022-11-22T15:10:04.288Z,5.04
2022-11-22T15:12:58.219Z,5.07
2022-11-22T15:57:32.061Z,4.85
2022-11-22T16:00:02.095Z,4.87
2022-11-22T16:02:41.284Z,4.81
2022-11-22T16:06:06.540Z,4.75
2022-11-22T16:08:03.427Z,4.74
2022-11-22T16:10:37.659Z,4.71
2022-11-22T16:13:27.029Z,4.73
2022-11-22T16:16:20.047Z,4.65
2022-11-22T16:18:50.809Z,4.66
2022-11-22T16:21:29.026Z,4.64
2022-11-22T16:24:12.676Z,4.66
2022-11-22T16:26:58.702Z,4.55
2022-11-22T16:29:33.746Z,4.52
2022-11-22T16:32:11.327Z,4.63
2022-11-22T16:34:42.950Z,4.56
2022-11-22T16:37:38.409Z,4.40
2022-11-22T16:40:12.002Z,4.29
2022-11-22T16:42:41.872Z,4.26
2022-11-22T16:45:19.952Z,4.32
2022-11-22T16:47:58.513Z,4.20
2022-11-22T16:50:40.598Z,4.23
2022-11-22T16:53:13.966Z,4.08
2022-11-22T16:55:44.290Z,4.05
2022-11-22T16:58:19.721Z,4.07
2022-11-22T17:00:53.162Z,4.07
2022-11-22T17:03:27.140Z,4.02
2022-11-22T17:05:56.354Z,4.02
2022-11-22T17:08:25.420Z,4.06
2022-11-22T17:10:54.563Z,4.00
2022-11-22T17:13:26.635Z,3.98
2022-11-22T17:15:58.063Z,3.96
2022-11-22T17:18:27.195Z,3.88
2022-11-22T17:20:56.344Z,3.92
2022-11-22T17:23:29.630Z,3.89
2022-11-22T17:25:58.791Z,3.89
2022-11-22T17:28:28.013Z,3.86
2022-11-22T17:31:00.211Z,3.87
2022-11-22T17:33:29.620Z,3.78
2022-11-22T17:35:58.788Z,3.81
2022-11-22T17:38:28.011Z,3.80
2022-11-22T17:41:00.788Z,3.64
2022-11-22T17:43:31.178Z,3.64
2022-11-22T17:46:02.747Z,3.74
2022-11-22T17:48:32.096Z,3.63
2022-11-22T17:51:05.716Z,3.65
2022-11-22T17:53:35.009Z,3.75
2022-11-22T17:56:11.925Z,3.73
2022-11-22T17:58:41.886Z,3.72
2022-11-22T18:01:15.809Z,3.64
2022-11-22T18:03:46.791Z,3.69
2022-11-22T18:06:18.503Z,3.63
2022-11-22T18:08:47.697Z,3.64
2022-11-22T18:11:17.573Z,3.60
2022-11-22T18:13:46.828Z,3.60
2022-11-22T18:16:18.599Z,3.52
2022-11-22T18:18:56.641Z,3.60
2022-11-22T18:21:29.254Z,3.53
2022-11-22T18:23:59.462Z,3.56
2022-11-22T18:26:44.912Z,3.49
2022-11-22T18:29:41.196Z,3.41
2022-11-22T18:32:07.692Z,3.48
2022-11-22T18:34:37.030Z,3.42
2022-11-22T18:37:06.477Z,3.33
2022-11-22T18:39:38.817Z,3.34
2022-11-22T18:42:11.538Z,3.35
2022-11-22T18:44:40.863Z,3.40
2022-11-22T18:47:11.493Z,3.39
2022-11-22T18:49:40.655Z,3.44
2022-11-22T18:52:12.015Z,3.45
2022-11-22T18:54:44.091Z,3.41
2022-11-22T18:57:13.271Z,3.40
2022-11-22T18:59:42.318Z,3.42
2022-11-22T19:02:13.032Z,3.38
2022-11-22T19:04:42.745Z,3.40
2022-11-22T19:07:14.323Z,3.42
2022-11-22T19:09:43.524Z,3.36
2022-11-22T19:12:12.840Z,3.43
2022-11-22T19:14:42.216Z,3.51
2022-11-22T19:17:13.132Z,3.51
2022-11-22T19:19:42.346Z,3.40
2022-11-22T19:22:11.837Z,3.35
2022-11-22T19:24:44.831Z,3.36
2022-11-22T19:27:16.522Z,3.39
2022-11-22T19:29:45.919Z,3.48
2022-11-22T19:32:16.777Z,3.42
2022-11-22T19:34:48.670Z,3.38
2022-11-22T19:37:18.146Z,3.44
2022-11-22T19:39:48.824Z,3.45
2022-11-22T19:42:18.199Z,3.44
2022-11-22T19:44:49.913Z,3.46
2022-11-22T19:47:23.661Z,3.48
2022-11-22T19:49:53.391Z,3.48
2022-11-22T19:52:22.555Z,3.49
2022-11-22T19:54:53.738Z,3.43
2022-11-22T19:57:23.705Z,3.40
2022-11-22T19:59:58.616Z,3.27
2022-11-22T20:02:32.602Z,3.27
2022-11-22T20:05:02.613Z,3.31
2022-11-22T20:07:32.540Z,3.36
2022-11-22T20:10:04.186Z,3.27
2022-11-22T20:12:33.374Z,3.14
2022-11-22T20:15:02.554Z,3.09
2022-11-22T20:17:33.522Z,3.12
2022-11-22T20:20:04.022Z,3.15
2022-11-22T20:22:33.210Z,3.21
2022-11-22T20:25:02.343Z,3.09
2022-11-22T20:27:31.658Z,3.13
2022-11-22T20:30:01.528Z,3.07
2022-11-22T20:32:32.037Z,2.98
2022-11-22T20:35:01.848Z,3.06
2022-11-22T20:37:31.354Z,3.07
2022-11-22T20:40:00.963Z,3.09
2022-11-22T20:42:34.789Z,3.12
2022-11-22T20:45:08.606Z,3.10
2022-11-22T20:47:39.179Z,3.04
2022-11-22T20:50:10.083Z,3.08
2022-11-22T20:52:40.200Z,3.14
2022-11-22T20:55:11.851Z,3.16
2022-11-22T20:57:42.312Z,3.07
2022-11-22T21:00:13.842Z,3.12
2022-11-22T21:02:47.837Z,3.11
2022-11-22T21:05:17.215Z,3.20
2022-11-22T21:07:46.518Z,3.25
2022-11-22T21:10:16.988Z,3.18
2022-11-22T21:12:46.087Z,3.21
2022-11-22T21:15:19.128Z,3.14
2022-11-22T21:18:17.261Z,3.13
2022-11-22T21:20:38.941Z,3.13
2022-11-22T21:23:08.098Z,3.15
2022-11-22T21:25:37.339Z,3.25
2022-11-22T21:28:07.588Z,3.25
2022-11-22T21:30:37.303Z,3.14
2022-11-22T21:33:07.819Z,3.13
2022-11-22T21:35:36.870Z,3.19
2022-11-22T21:38:06.072Z,3.19
2022-11-22T21:40:35.139Z,3.26
2022-11-22T21:43:04.213Z,3.17
2022-11-22T21:45:33.266Z,3.20
2022-11-22T21:48:04.636Z,3.35
2022-11-22T21:50:35.168Z,3.26
2022-11-22T21:53:04.388Z,3.29
2022-11-22T21:55:33.640Z,3.27
2022-11-22T21:58:02.727Z,3.25
2022-11-22T22:00:31.848Z,3.26
2022-11-22T22:03:01.122Z,3.34
2022-11-22T22:05:30.320Z,3.28
2022-11-22T22:08:00.863Z,3.20
2022-11-22T22:10:29.953Z,3.21
2022-11-22T22:12:59.267Z,3.21
2022-11-22T22:15:28.477Z,3.17
2022-11-22T22:17:57.583Z,3.16
2022-11-22T22:20:26.915Z,3.12
2022-11-22T22:22:56.265Z,3.15
2022-11-22T22:25:26.774Z,3.20
2022-11-22T22:27:58.197Z,3.17
2022-11-22T22:30:27.411Z,3.15
2022-11-22T22:32:56.421Z,3.32
2022-11-22T22:35:25.648Z,3.18
2022-11-22T22:37:54.686Z,3.19
2022-11-22T22:40:23.778Z,3.17
2022-11-22T22:42:55.619Z,3.29
2022-11-22T22:45:24.737Z,3.23
2022-11-22T22:47:53.792Z,3.21
2022-11-22T22:50:22.888Z,3.22
2022-11-22T22:52:54.014Z,3.24
2022-11-22T22:55:23.082Z,3.27
2022-11-22T22:57:54.715Z,3.17
2022-11-22T23:00:24.046Z,3.22
2022-11-22T23:02:53.210Z,3.32
2022-11-22T23:05:23.445Z,3.22
2022-11-22T23:07:52.589Z,3.16
2022-11-22T23:10:21.755Z,3.23
2022-11-22T23:12:50.862Z,3.25
2022-11-22T23:15:38.057Z,3.26
2022-11-22T23:18:10.846Z,3.23
2022-11-22T23:20:39.867Z,3.23
2022-11-22T23:23:08.916Z,3.28
2022-11-22T23:25:37.922Z,3.29
2022-11-22T23:28:07.048Z,3.28
2022-11-22T23:30:37.712Z,3.23
2022-11-22T23:33:06.757Z,3.33
2022-11-22T23:35:36.149Z,3.34
2022-11-22T23:38:05.503Z,3.35
2022-11-22T23:40:34.701Z,3.17
2022-11-22T23:43:03.974Z,3.22
2022-11-22T23:45:32.950Z,3.26
2022-11-22T23:48:03.417Z,3.17
2022-11-22T23:50:37.164Z,3.14
2022-11-22T23:53:06.615Z,3.04
2022-11-22T23:55:35.867Z,3.03
2022-11-22T23:58:04.939Z,3.03
